sensor_id;sensor_type;location;lat;lon;timestamp;temperature;humidity
67101;DHT22;54019;61.746;16.106;2022-09-09T00:01:40;21.90;39.20
67101;DHT22;54019;61.746;16.106;2022-09-09T00:04:13;21.90;39.20
67101;DHT22;54019;61.746;16.106;2022-09-09T00:06:45;21.90;39.20
67101;DHT22;54019;61.746;16.106;2022-09-09T00:09:13;21.90;39.10
67101;DHT22;54019;61.746;16.106;2022-09-09T00:11:43;21.90;39.10
67101;DHT22;54019;61.746;16.106;2022-09-09T00:14:16;21.80;39.10
67101;DHT22;54019;61.746;16.106;2022-09-09T00:16:50;21.90;39.10
67101;DHT22;54019;61.746;16.106;2022-09-09T00:19:23;21.90;38.90
67101;DHT22;54019;61.746;16.106;2022-09-09T00:21:54;21.80;38.90
67101;DHT22;54019;61.746;16.106;2022-09-09T00:24:26;21.90;38.80
67101;DHT22;54019;61.746;16.106;2022-09-09T00:26:57;21.80;38.70
67101;DHT22;54019;61.746;16.106;2022-09-09T00:29:32;21.80;38.80
67101;DHT22;54019;61.746;16.106;2022-09-09T00:32:09;21.80;38.90
67101;DHT22;54019;61.746;16.106;2022-09-09T00:34:38;21.80;38.80
67101;DHT22;54019;61.746;16.106;2022-09-09T00:37:05;21.80;39.00
67101;DHT22;54019;61.746;16.106;2022-09-09T00:39:38;21.80;38.90
67101;DHT22;54019;61.746;16.106;2022-09-09T00:42:13;21.80;38.90
67101;DHT22;54019;61.746;16.106;2022-09-09T00:44:39;21.80;39.00
67101;DHT22;54019;61.746;16.106;2022-09-09T00:47:33;21.80;39.00
67101;DHT22;54019;61.746;16.106;2022-09-09T00:50:12;21.80;38.90
67101;DHT22;54019;61.746;16.106;2022-09-09T00:52:47;21.80;38.70
67101;DHT22;54019;61.746;16.106;2022-09-09T00:55:23;21.80;39.30
67101;DHT22;54019;61.746;16.106;2022-09-09T00:57:52;21.80;38.60
67101;DHT22;54019;61.746;16.106;2022-09-09T01:00:24;21.80;38.60
67101;DHT22;54019;61.746;16.106;2022-09-09T01:03:04;21.80;38.70
67101;DHT22;54019;61.746;16.106;2022-09-09T01:05:36;21.80;38.70
67101;DHT22;54019;61.746;16.106;2022-09-09T01:08:11;21.80;38.80
67101;DHT22;54019;61.746;16.106;2022-09-09T01:10:47;21.80;38.80
67101;DHT22;54019;61.746;16.106;2022-09-09T01:13:19;21.80;38.80
67101;DHT22;54019;61.746;16.106;2022-09-09T01:15:48;21.80;38.70
67101;DHT22;54019;61.746;16.106;2022-09-09T01:18:17;21.80;38.80
67101;DHT22;54019;61.746;16.106;2022-09-09T01:20:50;21.80;38.80
67101;DHT22;54019;61.746;16.106;2022-09-09T01:23:33;21.80;38.90
67101;DHT22;54019;61.746;16.106;2022-09-09T01:26:19;21.70;38.80
67101;DHT22;54019;61.746;16.106;2022-09-09T01:28:48;21.80;38.60
67101;DHT22;54019;61.746;16.106;2022-09-09T01:31:18;21.70;38.70
67101;DHT22;54019;61.746;16.106;2022-09-09T01:33:44;21.70;38.70
67101;DHT22;54019;61.746;16.106;2022-09-09T01:36:13;21.80;38.70
67101;DHT22;54019;61.746;16.106;2022-09-09T01:38:40;21.70;38.50
67101;DHT22;54019;61.746;16.106;2022-09-09T01:41:06;21.80;38.50
67101;DHT22;54019;61.746;16.106;2022-09-09T01:43:34;21.80;38.60
67101;DHT22;54019;61.746;16.106;2022-09-09T01:46:01;21.80;38.60
67101;DHT22;54019;61.746;16.106;2022-09-09T01:48:27;21.70;38.60
67101;DHT22;54019;61.746;16.106;2022-09-09T01:50:53;21.70;38.50
67101;DHT22;54019;61.746;16.106;2022-09-09T01:53:22;21.70;38.50
67101;DHT22;54019;61.746;16.106;2022-09-09T01:55:55;21.70;38.50
67101;DHT22;54019;61.746;16.106;2022-09-09T01:58:29;21.70;38.70
67101;DHT22;54019;61.746;16.106;2022-09-09T02:01:06;21.70;38.60
67101;DHT22;54019;61.746;16.106;2022-09-09T02:03:33;21.70;38.60
67101;DHT22;54019;61.746;16.106;2022-09-09T02:06:08;21.70;38.50
67101;DHT22;54019;61.746;16.106;2022-09-09T02:08:43;21.70;38.70
67101;DHT22;54019;61.746;16.106;2022-09-09T02:11:14;21.80;38.50
67101;DHT22;54019;61.746;16.106;2022-09-09T02:13:41;21.80;38.40
67101;DHT22;54019;61.746;16.106;2022-09-09T02:16:13;21.80;38.40
67101;DHT22;54019;61.746;16.106;2022-09-09T02:18:44;21.70;38.30
67101;DHT22;54019;61.746;16.106;2022-09-09T02:21:11;21.70;38.40
67101;DHT22;54019;61.746;16.106;2022-09-09T02:23:39;21.70;38.50
67101;DHT22;54019;61.746;16.106;2022-09-09T02:26:07;21.70;38.50
67101;DHT22;54019;61.746;16.106;2022-09-09T02:28:35;21.70;38.50
67101;DHT22;54019;61.746;16.106;2022-09-09T02:31:02;21.70;38.60
67101;DHT22;54019;61.746;16.106;2022-09-09T02:33:34;21.70;38.70
67101;DHT22;54019;61.746;16.106;2022-09-09T02:36:01;21.70;38.60
67101;DHT22;54019;61.746;16.106;2022-09-09T02:38:31;21.70;38.70
67101;DHT22;54019;61.746;16.106;2022-09-09T02:40:59;21.70;38.60
67101;DHT22;54019;61.746;16.106;2022-09-09T02:43:24;21.70;38.40
67101;DHT22;54019;61.746;16.106;2022-09-09T02:45:55;21.60;38.40
67101;DHT22;54019;61.746;16.106;2022-09-09T02:48:30;21.70;38.10
67101;DHT22;54019;61.746;16.106;2022-09-09T02:51:02;21.70;38.50
67101;DHT22;54019;61.746;16.106;2022-09-09T02:53:38;21.60;38.30
67101;DHT22;54019;61.746;16.106;2022-09-09T02:56:09;21.60;38.30
67101;DHT22;54019;61.746;16.106;2022-09-09T02:58:39;21.60;38.40
67101;DHT22;54019;61.746;16.106;2022-09-09T03:01:05;21.70;38.60
67101;DHT22;54019;61.746;16.106;2022-09-09T03:03:33;21.60;38.50
67101;DHT22;54019;61.746;16.106;2022-09-09T03:05:59;21.70;38.50
67101;DHT22;54019;61.746;16.106;2022-09-09T03:08:24;21.60;38.40
67101;DHT22;54019;61.746;16.106;2022-09-09T03:10:50;21.60;38.50
67101;DHT22;54019;61.746;16.106;2022-09-09T03:13:16;21.60;38.50
67101;DHT22;54019;61.746;16.106;2022-09-09T03:15:42;21.60;38.50
67101;DHT22;54019;61.746;16.106;2022-09-09T03:18:08;21.60;38.40
67101;DHT22;54019;61.746;16.106;2022-09-09T03:20:35;21.60;38.30
67101;DHT22;54019;61.746;16.106;2022-09-09T03:23:01;21.60;38.40
67101;DHT22;54019;61.746;16.106;2022-09-09T03:25:27;21.60;38.30
67101;DHT22;54019;61.746;16.106;2022-09-09T03:27:53;21.60;38.30
67101;DHT22;54019;61.746;16.106;2022-09-09T03:30:19;21.60;38.30
67101;DHT22;54019;61.746;16.106;2022-09-09T03:32:45;21.60;38.20
67101;DHT22;54019;61.746;16.106;2022-09-09T03:35:11;21.60;38.30
67101;DHT22;54019;61.746;16.106;2022-09-09T03:37:38;21.60;38.20
67101;DHT22;54019;61.746;16.106;2022-09-09T03:40:05;21.60;38.60
67101;DHT22;54019;61.746;16.106;2022-09-09T03:42:31;21.60;38.50
67101;DHT22;54019;61.746;16.106;2022-09-09T03:44:56;21.60;38.50
67101;DHT22;54019;61.746;16.106;2022-09-09T03:47:22;21.60;38.60
67101;DHT22;54019;61.746;16.106;2022-09-09T03:49:48;21.60;38.40
67101;DHT22;54019;61.746;16.106;2022-09-09T03:52:14;21.60;38.30
67101;DHT22;54019;61.746;16.106;2022-09-09T03:54:42;21.60;38.30
67101;DHT22;54019;61.746;16.106;2022-09-09T03:57:08;21.70;38.10
67101;DHT22;54019;61.746;16.106;2022-09-09T03:59:33;21.80;37.80
67101;DHT22;54019;61.746;16.106;2022-09-09T04:01:59;21.80;37.30
67101;DHT22;54019;61.746;16.106;2022-09-09T04:04:25;21.90;37.10
67101;DHT22;54019;61.746;16.106;2022-09-09T04:06:51;22.00;37.00
67101;DHT22;54019;61.746;16.106;2022-09-09T04:09:17;22.00;36.80
67101;DHT22;54019;61.746;16.106;2022-09-09T04:11:44;22.00;36.80
67101;DHT22;54019;61.746;16.106;2022-09-09T04:14:11;22.00;36.70
67101;DHT22;54019;61.746;16.106;2022-09-09T04:16:37;22.00;37.10
67101;DHT22;54019;61.746;16.106;2022-09-09T04:19:02;22.00;38.10
67101;DHT22;54019;61.746;16.106;2022-09-09T04:21:29;21.90;38.20
67101;DHT22;54019;61.746;16.106;2022-09-09T04:23:54;21.90;38.50
67101;DHT22;54019;61.746;16.106;2022-09-09T04:26:20;21.90;38.30
67101;DHT22;54019;61.746;16.106;2022-09-09T04:28:47;21.90;38.50
67101;DHT22;54019;61.746;16.106;2022-09-09T04:31:16;21.90;38.60
67101;DHT22;54019;61.746;16.106;2022-09-09T04:33:42;21.80;38.20
67101;DHT22;54019;61.746;16.106;2022-09-09T04:36:08;21.90;39.10
67101;DHT22;54019;61.746;16.106;2022-09-09T04:38:34;21.90;38.80
67101;DHT22;54019;61.746;16.106;2022-09-09T04:41:00;21.90;38.20
67101;DHT22;54019;61.746;16.106;2022-09-09T04:43:25;22.00;37.70
67101;DHT22;54019;61.746;16.106;2022-09-09T04:45:53;22.00;37.30
67101;DHT22;54019;61.746;16.106;2022-09-09T04:48:19;22.10;37.30
67101;DHT22;54019;61.746;16.106;2022-09-09T04:50:53;22.20;37.20
67101;DHT22;54019;61.746;16.106;2022-09-09T04:53:19;22.20;37.20
67101;DHT22;54019;61.746;16.106;2022-09-09T04:55:45;22.20;37.00
67101;DHT22;54019;61.746;16.106;2022-09-09T04:58:11;22.30;37.00
67101;DHT22;54019;61.746;16.106;2022-09-09T05:00:37;22.30;37.10
67101;DHT22;54019;61.746;16.106;2022-09-09T05:03:05;22.20;37.00
67101;DHT22;54019;61.746;16.106;2022-09-09T05:05:32;22.30;37.00
67101;DHT22;54019;61.746;16.106;2022-09-09T05:08:01;22.30;36.90
67101;DHT22;54019;61.746;16.106;2022-09-09T05:10:27;22.20;37.30
67101;DHT22;54019;61.746;16.106;2022-09-09T05:12:53;22.20;37.60
67101;DHT22;54019;61.746;16.106;2022-09-09T05:15:19;22.20;37.70
67101;DHT22;54019;61.746;16.106;2022-09-09T05:17:44;22.10;38.20
67101;DHT22;54019;61.746;16.106;2022-09-09T05:20:12;22.10;37.50
67101;DHT22;54019;61.746;16.106;2022-09-09T05:22:37;22.10;38.00
67101;DHT22;54019;61.746;16.106;2022-09-09T05:25:04;22.20;37.40
67101;DHT22;54019;61.746;16.106;2022-09-09T05:27:30;22.20;37.30
67101;DHT22;54019;61.746;16.106;2022-09-09T05:29:56;22.30;39.30
67101;DHT22;54019;61.746;16.106;2022-09-09T05:32:21;22.40;38.20
67101;DHT22;54019;61.746;16.106;2022-09-09T05:34:47;22.50;37.40
67101;DHT22;54019;61.746;16.106;2022-09-09T05:37:14;22.50;37.20
67101;DHT22;54019;61.746;16.106;2022-09-09T05:39:40;22.50;37.10
67101;DHT22;54019;61.746;16.106;2022-09-09T05:42:06;22.40;37.00
67101;DHT22;54019;61.746;16.106;2022-09-09T05:44:32;22.40;37.00
67101;DHT22;54019;61.746;16.106;2022-09-09T05:46:58;22.40;37.30
67101;DHT22;54019;61.746;16.106;2022-09-09T05:49:24;22.30;38.50
67101;DHT22;54019;61.746;16.106;2022-09-09T05:51:50;22.30;39.50
67101;DHT22;54019;61.746;16.106;2022-09-09T05:54:17;22.30;39.70
67101;DHT22;54019;61.746;16.106;2022-09-09T05:56:43;22.30;39.20
67101;DHT22;54019;61.746;16.106;2022-09-09T05:59:09;22.30;38.20
67101;DHT22;54019;61.746;16.106;2022-09-09T06:01:36;22.30;38.00
67101;DHT22;54019;61.746;16.106;2022-09-09T06:04:03;22.30;38.10
67101;DHT22;54019;61.746;16.106;2022-09-09T06:06:31;22.30;37.60
67101;DHT22;54019;61.746;16.106;2022-09-09T06:08:58;22.30;38.00
67101;DHT22;54019;61.746;16.106;2022-09-09T06:11:26;22.30;37.20
67101;DHT22;54019;61.746;16.106;2022-09-09T06:13:53;22.40;37.10
67101;DHT22;54019;61.746;16.106;2022-09-09T06:16:20;22.40;36.90
67101;DHT22;54019;61.746;16.106;2022-09-09T06:18:47;22.50;36.90
67101;DHT22;54019;61.746;16.106;2022-09-09T06:21:16;22.50;36.90
67101;DHT22;54019;61.746;16.106;2022-09-09T06:23:42;22.50;36.70
67101;DHT22;54019;61.746;16.106;2022-09-09T06:26:12;22.50;37.10
67101;DHT22;54019;61.746;16.106;2022-09-09T06:28:40;22.50;36.80
67101;DHT22;54019;61.746;16.106;2022-09-09T06:31:09;22.60;36.60
67101;DHT22;54019;61.746;16.106;2022-09-09T06:33:36;22.60;36.60
67101;DHT22;54019;61.746;16.106;2022-09-09T06:36:03;22.60;36.40
67101;DHT22;54019;61.746;16.106;2022-09-09T06:38:30;22.70;36.40
67101;DHT22;54019;61.746;16.106;2022-09-09T06:40:58;22.70;36.20
67101;DHT22;54019;61.746;16.106;2022-09-09T06:43:24;22.80;36.40
67101;DHT22;54019;61.746;16.106;2022-09-09T06:45:56;22.80;36.00
67101;DHT22;54019;61.746;16.106;2022-09-09T06:48:22;22.90;36.20
67101;DHT22;54019;61.746;16.106;2022-09-09T06:50:48;23.00;36.10
67101;DHT22;54019;61.746;16.106;2022-09-09T06:53:16;23.00;36.20
67101;DHT22;54019;61.746;16.106;2022-09-09T06:55:42;23.00;36.10
67101;DHT22;54019;61.746;16.106;2022-09-09T06:58:08;23.00;35.90
67101;DHT22;54019;61.746;16.106;2022-09-09T07:00:34;23.10;35.80
67101;DHT22;54019;61.746;16.106;2022-09-09T07:03:01;23.20;35.50
67101;DHT22;54019;61.746;16.106;2022-09-09T07:05:27;23.40;35.30
67101;DHT22;54019;61.746;16.106;2022-09-09T07:07:53;23.40;35.10
67101;DHT22;54019;61.746;16.106;2022-09-09T07:10:19;23.40;34.90
67101;DHT22;54019;61.746;16.106;2022-09-09T07:12:44;23.40;34.90
67101;DHT22;54019;61.746;16.106;2022-09-09T07:15:10;23.50;35.00
67101;DHT22;54019;61.746;16.106;2022-09-09T07:17:36;23.50;34.80
67101;DHT22;54019;61.746;16.106;2022-09-09T07:20:04;23.50;34.90
67101;DHT22;54019;61.746;16.106;2022-09-09T07:22:30;23.50;34.90
67101;DHT22;54019;61.746;16.106;2022-09-09T07:24:56;23.50;34.80
67101;DHT22;54019;61.746;16.106;2022-09-09T07:27:22;23.50;34.80
67101;DHT22;54019;61.746;16.106;2022-09-09T07:29:47;23.50;34.90
67101;DHT22;54019;61.746;16.106;2022-09-09T07:32:13;23.50;34.70
67101;DHT22;54019;61.746;16.106;2022-09-09T07:34:39;23.60;34.70
67101;DHT22;54019;61.746;16.106;2022-09-09T07:37:06;23.50;34.80
67101;DHT22;54019;61.746;16.106;2022-09-09T07:39:32;23.50;34.80
67101;DHT22;54019;61.746;16.106;2022-09-09T07:41:58;23.50;34.80
67101;DHT22;54019;61.746;16.106;2022-09-09T07:44:24;23.50;35.00
67101;DHT22;54019;61.746;16.106;2022-09-09T07:46:51;23.50;34.80
67101;DHT22;54019;61.746;16.106;2022-09-09T07:49:17;23.50;35.00
67101;DHT22;54019;61.746;16.106;2022-09-09T07:51:45;23.60;34.90
67101;DHT22;54019;61.746;16.106;2022-09-09T07:54:14;23.80;34.80
67101;DHT22;54019;61.746;16.106;2022-09-09T07:56:42;23.80;34.80
67101;DHT22;54019;61.746;16.106;2022-09-09T07:59:09;23.80;34.70
67101;DHT22;54019;61.746;16.106;2022-09-09T08:01:37;23.80;34.80
67101;DHT22;54019;61.746;16.106;2022-09-09T08:04:05;23.70;34.80
67101;DHT22;54019;61.746;16.106;2022-09-09T08:06:34;23.70;34.90
67101;DHT22;54019;61.746;16.106;2022-09-09T08:09:00;23.60;35.00
67101;DHT22;54019;61.746;16.106;2022-09-09T08:11:29;23.60;35.00
67101;DHT22;54019;61.746;16.106;2022-09-09T08:13:55;23.50;35.10
67101;DHT22;54019;61.746;16.106;2022-09-09T08:16:23;23.50;35.20
67101;DHT22;54019;61.746;16.106;2022-09-09T08:18:49;23.40;35.20
67101;DHT22;54019;61.746;16.106;2022-09-09T08:21:16;23.40;35.20
67101;DHT22;54019;61.746;16.106;2022-09-09T08:23:43;23.40;35.30
67101;DHT22;54019;61.746;16.106;2022-09-09T08:26:11;23.30;35.30
67101;DHT22;54019;61.746;16.106;2022-09-09T08:28:39;23.30;35.30
67101;DHT22;54019;61.746;16.106;2022-09-09T08:31:10;23.30;35.50
67101;DHT22;54019;61.746;16.106;2022-09-09T08:33:36;23.20;35.30
67101;DHT22;54019;61.746;16.106;2022-09-09T08:36:03;23.20;36.10
67101;DHT22;54019;61.746;16.106;2022-09-09T08:38:28;23.20;35.50
67101;DHT22;54019;61.746;16.106;2022-09-09T08:41:02;23.10;35.50
67101;DHT22;54019;61.746;16.106;2022-09-09T08:43:30;23.10;35.40
67101;DHT22;54019;61.746;16.106;2022-09-09T08:46:03;23.10;35.60
67101;DHT22;54019;61.746;16.106;2022-09-09T08:48:44;23.20;35.70
67101;DHT22;54019;61.746;16.106;2022-09-09T08:51:14;23.20;35.60
67101;DHT22;54019;61.746;16.106;2022-09-09T08:53:43;23.20;35.60
67101;DHT22;54019;61.746;16.106;2022-09-09T08:56:12;23.30;36.00
67101;DHT22;54019;61.746;16.106;2022-09-09T08:58:43;23.30;35.70
67101;DHT22;54019;61.746;16.106;2022-09-09T09:04:05;23.40;35.40
67101;DHT22;54019;61.746;16.106;2022-09-09T09:06:42;23.40;35.40
67101;DHT22;54019;61.746;16.106;2022-09-09T09:09:17;23.50;35.40
67101;DHT22;54019;61.746;16.106;2022-09-09T09:11:48;23.50;35.30
67101;DHT22;54019;61.746;16.106;2022-09-09T09:14:19;23.40;35.20
67101;DHT22;54019;61.746;16.106;2022-09-09T09:16:52;23.40;35.40
67101;DHT22;54019;61.746;16.106;2022-09-09T09:19:19;23.40;35.30
67101;DHT22;54019;61.746;16.106;2022-09-09T09:21:50;23.40;35.40
67101;DHT22;54019;61.746;16.106;2022-09-09T09:24:20;23.30;35.60
67101;DHT22;54019;61.746;16.106;2022-09-09T09:26:46;23.30;35.60
67101;DHT22;54019;61.746;16.106;2022-09-09T09:29:13;23.30;35.50
67101;DHT22;54019;61.746;16.106;2022-09-09T09:31:42;23.30;35.60
67101;DHT22;54019;61.746;16.106;2022-09-09T09:34:11;23.30;35.70
67101;DHT22;54019;61.746;16.106;2022-09-09T09:36:40;23.20;35.70
67101;DHT22;54019;61.746;16.106;2022-09-09T09:39:07;23.20;35.90
67101;DHT22;54019;61.746;16.106;2022-09-09T09:41:34;23.20;36.10
67101;DHT22;54019;61.746;16.106;2022-09-09T09:44:02;23.20;36.20
67101;DHT22;54019;61.746;16.106;2022-09-09T09:46:28;23.10;36.00
67101;DHT22;54019;61.746;16.106;2022-09-09T09:48:58;23.10;36.30
67101;DHT22;54019;61.746;16.106;2022-09-09T09:51:26;23.10;36.30
67101;DHT22;54019;61.746;16.106;2022-09-09T09:53:54;23.10;36.40
67101;DHT22;54019;61.746;16.106;2022-09-09T09:56:28;23.00;36.20
67101;DHT22;54019;61.746;16.106;2022-09-09T09:58:55;23.00;36.30
67101;DHT22;54019;61.746;16.106;2022-09-09T10:01:22;23.00;36.40
67101;DHT22;54019;61.746;16.106;2022-09-09T10:03:51;23.00;36.40
67101;DHT22;54019;61.746;16.106;2022-09-09T10:06:28;23.00;36.50
67101;DHT22;54019;61.746;16.106;2022-09-09T10:08:56;23.00;36.60
67101;DHT22;54019;61.746;16.106;2022-09-09T10:11:35;23.10;36.70
67101;DHT22;54019;61.746;16.106;2022-09-09T10:14:14;23.10;36.70
67101;DHT22;54019;61.746;16.106;2022-09-09T10:16:59;23.20;36.70
67101;DHT22;54019;61.746;16.106;2022-09-09T10:19:30;23.20;36.70
67101;DHT22;54019;61.746;16.106;2022-09-09T10:22:05;23.20;36.80
67101;DHT22;54019;61.746;16.106;2022-09-09T10:27:33;23.20;36.70
67101;DHT22;54019;61.746;16.106;2022-09-09T10:30:12;23.10;36.80
67101;DHT22;54019;61.746;16.106;2022-09-09T10:32:48;23.10;36.80
67101;DHT22;54019;61.746;16.106;2022-09-09T10:35:25;23.10;36.80
67101;DHT22;54019;61.746;16.106;2022-09-09T10:38:12;23.10;36.80
67101;DHT22;54019;61.746;16.106;2022-09-09T10:40:43;23.10;36.90
67101;DHT22;54019;61.746;16.106;2022-09-09T10:43:34;23.00;36.70
67101;DHT22;54019;61.746;16.106;2022-09-09T10:46:10;23.00;36.70
67101;DHT22;54019;61.746;16.106;2022-09-09T10:48:54;23.00;36.70
67101;DHT22;54019;61.746;16.106;2022-09-09T10:51:26;23.00;37.10
67101;DHT22;54019;61.746;16.106;2022-09-09T10:54:05;23.00;37.40
67101;DHT22;54019;61.746;16.106;2022-09-09T10:56:35;23.00;36.70
67101;DHT22;54019;61.746;16.106;2022-09-09T10:59:06;23.00;36.70
67101;DHT22;54019;61.746;16.106;2022-09-09T11:01:37;23.00;36.70
67101;DHT22;54019;61.746;16.106;2022-09-09T11:04:11;23.00;36.80
67101;DHT22;54019;61.746;16.106;2022-09-09T11:06:44;23.00;36.70
67101;DHT22;54019;61.746;16.106;2022-09-09T11:09:16;22.90;36.70
67101;DHT22;54019;61.746;16.106;2022-09-09T11:11:47;22.90;36.80
67101;DHT22;54019;61.746;16.106;2022-09-09T11:14:17;23.00;36.70
67101;DHT22;54019;61.746;16.106;2022-09-09T11:16:49;23.00;36.80
67101;DHT22;54019;61.746;16.106;2022-09-09T11:19:21;23.00;36.90
67101;DHT22;54019;61.746;16.106;2022-09-09T11:21:50;22.90;36.70
67101;DHT22;54019;61.746;16.106;2022-09-09T11:24:21;22.90;36.80
67101;DHT22;54019;61.746;16.106;2022-09-09T11:26:52;23.00;36.90
67101;DHT22;54019;61.746;16.106;2022-09-09T11:35:41;22.90;36.90
67101;DHT22;54019;61.746;16.106;2022-09-09T11:38:18;22.90;37.20
67101;DHT22;54019;61.746;16.106;2022-09-09T11:40:45;22.90;37.10
67101;DHT22;54019;61.746;16.106;2022-09-09T11:43:15;22.90;37.80
67101;DHT22;54019;61.746;16.106;2022-09-09T11:45:43;22.90;37.20
67101;DHT22;54019;61.746;16.106;2022-09-09T11:48:23;22.90;37.30
67101;DHT22;54019;61.746;16.106;2022-09-09T11:50:58;22.90;37.20
67101;DHT22;54019;61.746;16.106;2022-09-09T11:53:24;22.90;37.20
67101;DHT22;54019;61.746;16.106;2022-09-09T11:56:11;22.90;37.10
67101;DHT22;54019;61.746;16.106;2022-09-09T11:58:41;22.90;37.20
67101;DHT22;54019;61.746;16.106;2022-09-09T12:01:35;22.90;37.20
67101;DHT22;54019;61.746;16.106;2022-09-09T12:04:17;22.90;37.20
67101;DHT22;54019;61.746;16.106;2022-09-09T12:06:50;22.90;37.20
67101;DHT22;54019;61.746;16.106;2022-09-09T12:09:22;22.90;37.50
67101;DHT22;54019;61.746;16.106;2022-09-09T12:11:48;22.90;37.10
67101;DHT22;54019;61.746;16.106;2022-09-09T12:14:35;22.90;37.20
67101;DHT22;54019;61.746;16.106;2022-09-09T12:17:10;22.80;37.20
67101;DHT22;54019;61.746;16.106;2022-09-09T12:19:43;22.90;37.40
67101;DHT22;54019;61.746;16.106;2022-09-09T12:22:19;22.80;37.20
67101;DHT22;54019;61.746;16.106;2022-09-09T12:24:49;22.80;37.40
67101;DHT22;54019;61.746;16.106;2022-09-09T12:27:20;22.80;37.30
67101;DHT22;54019;61.746;16.106;2022-09-09T12:29:55;22.80;37.40
67101;DHT22;54019;61.746;16.106;2022-09-09T12:32:25;22.80;37.30
67101;DHT22;54019;61.746;16.106;2022-09-09T12:34:54;22.80;37.70
67101;DHT22;54019;61.746;16.106;2022-09-09T12:37:27;22.80;37.50
67101;DHT22;54019;61.746;16.106;2022-09-09T12:39:55;22.80;37.60
67101;DHT22;54019;61.746;16.106;2022-09-09T12:42:22;22.80;37.60
67101;DHT22;54019;61.746;16.106;2022-09-09T12:44:55;22.90;37.60
67101;DHT22;54019;61.746;16.106;2022-09-09T12:47:25;22.90;37.60
67101;DHT22;54019;61.746;16.106;2022-09-09T12:49:53;22.90;37.70
67101;DHT22;54019;61.746;16.106;2022-09-09T12:52:25;22.90;37.80
67101;DHT22;54019;61.746;16.106;2022-09-09T12:54:53;22.90;37.90
67101;DHT22;54019;61.746;16.106;2022-09-09T12:57:20;22.90;38.00
67101;DHT22;54019;61.746;16.106;2022-09-09T12:59:48;22.90;38.10
67101;DHT22;54019;61.746;16.106;2022-09-09T13:02:25;22.90;38.30
67101;DHT22;54019;61.746;16.106;2022-09-09T13:04:52;22.90;38.30
67101;DHT22;54019;61.746;16.106;2022-09-09T13:07:19;22.90;38.50
67101;DHT22;54019;61.746;16.106;2022-09-09T13:09:49;22.90;38.40
67101;DHT22;54019;61.746;16.106;2022-09-09T13:12:19;22.90;38.40
67101;DHT22;54019;61.746;16.106;2022-09-09T13:14:49;22.90;38.30
67101;DHT22;54019;61.746;16.106;2022-09-09T13:17:21;22.90;38.30
67101;DHT22;54019;61.746;16.106;2022-09-09T13:19:53;22.90;38.20
67101;DHT22;54019;61.746;16.106;2022-09-09T13:22:24;22.90;38.20
67101;DHT22;54019;61.746;16.106;2022-09-09T13:25:00;22.90;38.10
67101;DHT22;54019;61.746;16.106;2022-09-09T13:27:31;22.90;38.10
67101;DHT22;54019;61.746;16.106;2022-09-09T13:29:57;22.90;38.10
67101;DHT22;54019;61.746;16.106;2022-09-09T13:32:27;22.80;37.90
67101;DHT22;54019;61.746;16.106;2022-09-09T13:34:54;22.80;37.80
67101;DHT22;54019;61.746;16.106;2022-09-09T13:37:25;22.80;37.80
67101;DHT22;54019;61.746;16.106;2022-09-09T13:39:52;22.80;37.90
67101;DHT22;54019;61.746;16.106;2022-09-09T13:42:24;22.80;37.70
67101;DHT22;54019;61.746;16.106;2022-09-09T13:44:50;22.80;37.80
67101;DHT22;54019;61.746;16.106;2022-09-09T13:47:19;22.80;37.80
67101;DHT22;54019;61.746;16.106;2022-09-09T13:49:47;22.80;37.80
67101;DHT22;54019;61.746;16.106;2022-09-09T13:52:14;22.80;37.70
67101;DHT22;54019;61.746;16.106;2022-09-09T13:54:40;22.80;37.80
67101;DHT22;54019;61.746;16.106;2022-09-09T13:57:15;22.70;37.60
67101;DHT22;54019;61.746;16.106;2022-09-09T13:59:41;22.80;37.40
67101;DHT22;54019;61.746;16.106;2022-09-09T14:02:07;22.80;37.60
67101;DHT22;54019;61.746;16.106;2022-09-09T14:04:33;22.80;37.60
67101;DHT22;54019;61.746;16.106;2022-09-09T14:07:00;22.80;37.60
67101;DHT22;54019;61.746;16.106;2022-09-09T14:09:26;22.70;37.60
67101;DHT22;54019;61.746;16.106;2022-09-09T14:11:52;22.80;37.50
67101;DHT22;54019;61.746;16.106;2022-09-09T14:14:18;22.70;37.70
67101;DHT22;54019;61.746;16.106;2022-09-09T14:16:44;22.70;37.70
67101;DHT22;54019;61.746;16.106;2022-09-09T14:19:10;22.70;37.40
67101;DHT22;54019;61.746;16.106;2022-09-09T14:21:36;22.70;40.50
67101;DHT22;54019;61.746;16.106;2022-09-09T14:24:03;22.70;40.50
67101;DHT22;54019;61.746;16.106;2022-09-09T14:26:29;22.70;39.90
67101;DHT22;54019;61.746;16.106;2022-09-09T14:28:55;22.70;40.00
67101;DHT22;54019;61.746;16.106;2022-09-09T14:31:21;22.70;39.20
67101;DHT22;54019;61.746;16.106;2022-09-09T14:33:48;22.70;38.80
67101;DHT22;54019;61.746;16.106;2022-09-09T14:36:14;22.70;38.80
67101;DHT22;54019;61.746;16.106;2022-09-09T14:38:39;22.60;38.60
67101;DHT22;54019;61.746;16.106;2022-09-09T14:41:07;22.70;38.60
67101;DHT22;54019;61.746;16.106;2022-09-09T14:43:34;22.70;38.40
67101;DHT22;54019;61.746;16.106;2022-09-09T14:46:05;22.70;38.50
67101;DHT22;54019;61.746;16.106;2022-09-09T14:48:31;22.80;38.30
67101;DHT22;54019;61.746;16.106;2022-09-09T14:50:57;22.90;38.10
67101;DHT22;54019;61.746;16.106;2022-09-09T14:53:29;23.00;37.80
67101;DHT22;54019;61.746;16.106;2022-09-09T14:56:03;23.10;37.50
67101;DHT22;54019;61.746;16.106;2022-09-09T14:58:32;23.30;37.20
67101;DHT22;54019;61.746;16.106;2022-09-09T15:01:03;23.40;37.00
67101;DHT22;54019;61.746;16.106;2022-09-09T15:03:28;23.40;36.90
67101;DHT22;54019;61.746;16.106;2022-09-09T15:05:54;23.50;36.40
67101;DHT22;54019;61.746;16.106;2022-09-09T15:08:20;23.50;36.10
67101;DHT22;54019;61.746;16.106;2022-09-09T15:10:46;23.60;38.80
67101;DHT22;54019;61.746;16.106;2022-09-09T15:13:14;23.60;37.50
67101;DHT22;54019;61.746;16.106;2022-09-09T15:15:41;23.60;37.80
67101;DHT22;54019;61.746;16.106;2022-09-09T15:18:07;23.70;38.20
67101;DHT22;54019;61.746;16.106;2022-09-09T15:20:33;23.70;38.20
67101;DHT22;54019;61.746;16.106;2022-09-09T15:22:59;23.70;38.40
67101;DHT22;54019;61.746;16.106;2022-09-09T15:25:25;23.70;38.40
67101;DHT22;54019;61.746;16.106;2022-09-09T15:27:50;23.60;38.30
67101;DHT22;54019;61.746;16.106;2022-09-09T15:30:16;23.60;38.60
67101;DHT22;54019;61.746;16.106;2022-09-09T15:32:44;23.60;38.30
67101;DHT22;54019;61.746;16.106;2022-09-09T15:35:09;23.60;38.90
67101;DHT22;54019;61.746;16.106;2022-09-09T15:37:35;23.50;39.00
67101;DHT22;54019;61.746;16.106;2022-09-09T15:40:02;23.40;39.10